Time;durP1;ratioP1;P1;durP2;ratioP2;P2;SDS_P1;SDS_P2;PMS_P1;PMS_P2;Temp;Humidity;BMP_temperature;BMP_pressure;BME280_temperature;BME280_humidity;BME280_pressure;Samples;Min_cycle;Max_cycle;Signal;HPM_P1;HPM_P2
2021/10/27 00:00:34;;;;;;;9.87;3.30;;;6.80;1.00;;;;;;5035158;28;20475;-76
2021/10/27 00:03:00;;;;;;;8.10;3.87;;;;;;;;;;5034644;28;20184;-73
2021/10/27 00:05:52;;;;;;;3.30;2.83;;;6.70;1.00;;;;;;5034030;28;20498;-76
2021/10/27 00:08:18;;;;;;;3.93;2.60;;;6.70;1.00;;;;;;5033295;28;20825;-76
2021/10/27 00:10:52;;;;;;;6.60;3.23;;;6.70;1.00;;;;;;5033779;28;20407;-76
2021/10/27 00:13:19;;;;;;;4.10;2.90;;;;;;;;;;5029964;28;20179;-76
2021/10/27 00:15:53;;;;;;;3.80;2.90;;;;;;;;;;5034693;28;20465;-76
2021/10/27 00:18:19;;;;;;;2.90;2.70;;;;;;;;;;5034570;28;20498;-73
2021/10/27 00:20:47;;;;;;;2.70;2.50;;;;;;;;;;5031955;28;20408;-73
2021/10/27 00:23:17;;;;;;;7.33;3.03;;;;;;;;;;5033910;28;20506;-73
2021/10/27 00:25:47;;;;;;;4.17;2.33;;;;;;;;;;5034366;28;20407;-73
2021/10/27 00:28:13;;;;;;;9.23;3.03;;;;;;;;;;5034170;28;20969;-73
2021/10/27 00:30:47;;;;;;;2.60;2.40;;;;;;;;;;5034215;28;20744;-72
2021/10/27 00:33:13;;;;;;;4.23;2.93;;;6.70;1.00;;;;;;5027970;28;20944;-73
2021/10/27 00:35:39;;;;;;;4.53;2.70;;;6.70;1.00;;;;;;5034103;28;20805;-73
2021/10/27 00:38:11;;;;;;;3.37;2.83;;;;;;;;;;5034039;28;20407;-73
2021/10/27 00:40:41;;;;;;;5.00;2.90;;;;;;;;;;5033964;28;20532;-73
2021/10/27 00:43:07;;;;;;;8.63;3.83;;;;;;;;;;5032190;28;20423;-73
2021/10/27 00:45:35;;;;;;;11.40;3.70;;;;;;;;;;5032920;28;20498;-73
2021/10/27 00:48:01;;;;;;;4.63;2.97;;;;;;;;;;5033990;28;20459;-73
2021/10/27 00:50:27;;;;;;;4.83;3.40;;;;;;;;;;5034242;28;20411;-73
2021/10/27 00:52:59;;;;;;;4.23;3.20;;;;;;;;;;5033906;28;20924;-73
2021/10/27 00:55:26;;;;;;;5.50;4.07;;;6.90;1.00;;;;;;5033779;28;20968;-73
2021/10/27 00:57:52;;;;;;;5.63;3.93;;;;;;;;;;5033050;28;20430;-73
2021/10/27 01:00:18;;;;;;;5.80;3.63;;;7.10;1.00;;;;;;5032532;28;20428;-73
2021/10/27 01:02:44;;;;;;;6.17;3.60;;;;;;;;;;5032459;28;20477;-73
2021/10/27 01:05:12;;;;;;;4.73;3.53;;;;;;;;;;5032963;28;20414;-76
2021/10/27 01:07:38;;;;;;;6.47;3.53;;;7.20;1.00;;;;;;5032760;28;20462;-77
2021/10/27 01:10:04;;;;;;;7.10;3.67;;;7.20;1.00;;;;;;5032405;28;20526;-76
2021/10/27 01:12:40;;;;;;;7.13;3.77;;;7.30;1.00;;;;;;5030916;28;20433;-76
2021/10/27 01:15:07;;;;;;;6.73;3.70;;;7.30;1.00;;;;;;5031690;28;20418;-76
2021/10/27 01:17:34;;;;;;;6.77;3.87;;;7.30;1.00;;;;;;5033717;28;20431;-76
2021/10/27 01:20:05;;;;;;;7.80;3.10;;;7.30;1.00;;;;;;5034071;28;20434;-73
2021/10/27 01:22:35;;;;;;;4.53;3.30;;;7.30;1.00;;;;;;5033680;28;20487;-73
2021/10/27 01:25:01;;;;;;;10.30;3.70;;;7.30;1.00;;;;;;5033522;28;20804;-73
2021/10/27 01:27:42;;;;;;;6.67;3.63;;;7.30;1.00;;;;;;5033786;28;20455;-74
2021/10/27 01:30:19;;;;;;;5.20;3.43;;;7.30;1.00;;;;;;5033513;28;20506;-74
2021/10/27 01:32:58;;;;;;;7.30;4.10;;;7.40;1.00;;;;;;5033654;28;20812;-73
2021/10/27 01:35:24;;;;;;;15.13;3.60;;;7.40;1.00;;;;;;5034244;28;20446;-73
2021/10/27 01:37:52;;;;;;;10.23;3.77;;;7.40;1.00;;;;;;5031910;28;20810;-73
2021/10/27 01:40:19;;;;;;;5.73;3.57;;;7.50;1.00;;;;;;5033308;28;20598;-73
2021/10/27 01:42:49;;;;;;;5.60;3.90;;;7.50;1.00;;;;;;5033150;28;20418;-73
2021/10/27 01:45:16;;;;;;;4.30;3.60;;;7.60;1.00;;;;;;5032169;28;20918;-73
2021/10/27 01:47:44;;;;;;;6.73;4.40;;;7.60;1.00;;;;;;5033505;28;20454;-73
2021/10/27 01:50:12;;;;;;;11.40;4.50;;;7.60;1.00;;;;;;5033616;28;20916;-73
2021/10/27 01:52:40;;;;;;;7.27;4.37;;;7.70;1.00;;;;;;5033421;28;20918;-73
2021/10/27 01:55:10;;;;;;;9.07;4.47;;;7.80;1.00;;;;;;5035761;28;20889;-73
2021/10/27 01:57:36;;;;;;;9.63;4.30;;;7.90;1.00;;;;;;5037360;28;20426;-73
2021/10/27 02:00:07;;;;;;;5.40;4.10;;;7.90;1.00;;;;;;5036838;28;20913;-73
2021/10/27 02:02:34;;;;;;;12.73;5.10;;;8.00;1.00;;;;;;5026080;28;20181;-73
2021/10/27 02:05:28;;;;;;;6.30;4.07;;;8.10;1.00;;;;;;5037309;28;20434;-76
2021/10/27 02:07:54;;;;;;;5.27;4.00;;;8.20;1.00;;;;;;5036932;28;20450;-76
2021/10/27 02:10:22;;;;;;;4.63;3.63;;;8.30;1.00;;;;;;5036866;28;20400;-76
2021/10/27 02:12:52;;;;;;;4.97;3.80;;;8.40;1.00;;;;;;5024634;28;20582;-76
2021/10/27 02:15:28;;;;;;;6.10;3.97;;;8.40;1.00;;;;;;5022002;28;20852;-77
2021/10/27 02:17:58;;;;;;;5.30;3.60;;;8.40;1.00;;;;;;5036471;28;20415;-76
2021/10/27 02:20:28;;;;;;;4.60;3.50;;;8.50;1.00;;;;;;5028874;28;20952;-76
2021/10/27 02:22:58;;;;;;;4.93;3.70;;;8.50;1.00;;;;;;5036280;28;20938;-76
2021/10/27 02:25:24;;;;;;;8.73;3.93;;;8.60;1.00;;;;;;5036158;28;20414;-77
2021/10/27 02:27:50;;;;;;;8.97;3.90;;;;;;;;;;5036000;28;20466;-76
2021/10/27 02:30:16;;;;;;;4.40;3.40;;;8.70;1.00;;;;;;5035689;28;20886;-76
2021/10/27 02:32:42;;;;;;;9.23;4.27;;;8.70;1.00;;;;;;5035723;28;20426;-76
2021/10/27 02:35:08;;;;;;;6.00;3.80;;;8.70;1.00;;;;;;5036446;28;20442;-77
2021/10/27 02:37:34;;;;;;;4.93;3.90;;;8.80;1.00;;;;;;5035741;28;20188;-76
2021/10/27 02:40:00;;;;;;;6.23;4.30;;;8.90;1.00;;;;;;5036293;28;20254;-77
2021/10/27 02:42:29;;;;;;;6.80;3.30;;;8.90;1.00;;;;;;5036235;28;20415;-76
2021/10/27 02:44:58;;;;;;;10.47;3.80;;;9.00;1.00;;;;;;5036712;28;20411;-76
2021/10/27 02:47:28;;;;;;;6.70;4.50;;;9.00;1.00;;;;;;5032345;28;20455;-76
2021/10/27 02:49:54;;;;;;;9.93;4.03;;;9.10;1.00;;;;;;5024793;28;20423;-76
2021/10/27 02:52:28;;;;;;;7.40;4.27;;;9.20;1.00;;;;;;5033770;28;20407;-76
2021/10/27 02:54:54;;;;;;;5.87;4.30;;;9.20;1.00;;;;;;5036087;28;20203;-76
2021/10/27 02:57:29;;;;;;;9.63;5.43;;;9.20;1.00;;;;;;5036011;28;20760;-76
2021/10/27 03:00:11;;;;;;;8.90;5.17;;;9.30;1.00;;;;;;5035670;28;20183;-76
2021/10/27 03:02:46;;;;;;;6.43;4.60;;;9.30;1.00;;;;;;5036142;28;20415;-76
2021/10/27 03:05:22;;;;;;;10.80;5.20;;;9.30;1.00;;;;;;5035082;28;20488;-74
2021/10/27 03:07:52;;;;;;;6.30;4.60;;;9.30;1.00;;;;;;5034586;28;20459;-73
2021/10/27 03:10:18;;;;;;;8.73;5.27;;;9.40;1.00;;;;;;5035839;28;20408;-73
2021/10/27 03:12:44;;;;;;;6.57;4.60;;;;;;;;;;5035793;28;20411;-73
2021/10/27 03:15:11;;;;;;;12.00;5.27;;;9.40;1.00;;;;;;5035483;28;20504;-73
2021/10/27 03:17:40;;;;;;;8.33;4.63;;;9.50;1.00;;;;;;5035604;28;20437;-73
2021/10/27 03:20:16;;;;;;;10.93;5.40;;;9.50;1.00;;;;;;5036037;28;20420;-76
2021/10/27 03:22:53;;;;;;;7.60;4.50;;;9.60;1.00;;;;;;5035728;28;20422;-76
2021/10/27 03:25:19;;;;;;;7.90;4.50;;;9.60;1.00;;;;;;5035922;28;20403;-76
2021/10/27 03:27:52;;;;;;;21.77;5.10;;;9.70;1.00;;;;;;5034097;28;20485;-76
2021/10/27 03:30:34;;;;;;;13.63;5.43;;;9.70;1.00;;;;;;5035563;28;20399;-76
2021/10/27 03:33:04;;;;;;;7.63;4.83;;;9.70;1.00;;;;;;5035248;28;20396;-76
2021/10/27 03:35:30;;;;;;;7.90;5.10;;;9.70;1.00;;;;;;5035931;28;20443;-73
2021/10/27 03:37:56;;;;;;;7.83;5.00;;;9.70;1.00;;;;;;5034871;28;20511;-73
2021/10/27 03:40:22;;;;;;;8.17;5.70;;;;;;;;;;5035361;28;20200;-74
2021/10/27 03:42:52;;;;;;;8.10;5.07;;;9.80;1.00;;;;;;5034456;28;20650;-74
2021/10/27 03:45:18;;;;;;;9.30;5.17;;;9.80;1.00;;;;;;5034965;28;20903;-73
2021/10/27 03:47:44;;;;;;;8.70;4.80;;;9.90;1.00;;;;;;5031186;28;20493;-73
2021/10/27 03:50:14;;;;;;;9.60;5.23;;;9.90;1.00;;;;;;5033789;28;20275;-73
2021/10/27 03:52:52;;;;;;;10.00;5.03;;;10.00;1.00;;;;;;5034953;28;20502;-76
2021/10/27 03:55:18;;;;;;;15.40;4.67;;;;;;;;;;5032079;28;20506;-76
2021/10/27 03:57:46;;;;;;;13.13;5.90;;;10.10;1.00;;;;;;5035208;28;20454;-76
2021/10/27 04:00:22;;;;;;;8.73;5.23;;;10.10;1.00;;;;;;5034979;28;20426;-76
2021/10/27 04:02:58;;;;;;;7.33;5.57;;;10.10;1.00;;;;;;5034911;28;20513;-76
2021/10/27 04:05:24;;;;;;;8.17;5.40;;;10.10;1.00;;;;;;5034988;28;20458;-73
2021/10/27 04:07:52;;;;;;;12.90;6.50;;;10.10;1.00;;;;;;5034193;28;20532;-72
2021/10/27 04:10:22;;;;;;;8.63;5.00;;;10.10;1.00;;;;;;5033232;28;20792;-73
2021/10/27 04:12:48;;;;;;;8.17;5.23;;;10.10;1.00;;;;;;5034327;28;20423;-74
2021/10/27 04:15:16;;;;;;;8.70;4.77;;;10.20;1.00;;;;;;5034701;28;20426;-71
2021/10/27 04:17:42;;;;;;;11.23;5.47;;;10.20;1.00;;;;;;5033273;28;20203;-71
2021/10/27 04:20:16;;;;;;;11.87;5.67;;;10.20;1.00;;;;;;5034081;28;20958;-73
2021/10/27 04:22:42;;;;;;;7.23;4.43;;;10.30;1.00;;;;;;5034222;28;20179;-77
2021/10/27 04:25:09;;;;;;;10.67;5.53;;;11.10;1.00;;;;;;5034598;28;20489;-76
2021/10/27 04:27:41;;;;;;;12.80;5.57;;;10.30;1.00;;;;;;5033938;28;20255;-77
2021/10/27 04:30:11;;;;;;;15.47;5.37;;;10.30;1.00;;;;;;5034218;28;20426;-77
2021/10/27 04:32:41;;;;;;;7.63;5.20;;;10.30;1.00;;;;;;5032634;28;20506;-76
2021/10/27 04:35:11;;;;;;;6.77;5.27;;;10.40;1.00;;;;;;5034596;28;20426;-77
2021/10/27 04:37:43;;;;;;;9.50;5.70;;;10.40;1.00;;;;;;5033973;28;20427;-73
2021/10/27 04:40:15;;;;;;;6.80;5.20;;;10.40;1.00;;;;;;5030422;28;20770;-73
2021/10/27 04:42:58;;;;;;;8.80;5.40;;;10.40;1.00;;;;;;5032052;28;20419;-73
2021/10/27 04:45:25;;;;;;;11.50;5.33;;;10.40;1.00;;;;;;5029017;28;20437;-72
2021/10/27 04:47:52;;;;;;;10.73;5.50;;;10.40;1.00;;;;;;5033671;28;21141;-73
2021/10/27 04:50:18;;;;;;;10.43;5.60;;;10.40;1.00;;;;;;5033757;28;20432;-73
2021/10/27 04:52:44;;;;;;;6.73;4.50;;;10.50;1.00;;;;;;5032783;28;20918;-76
2021/10/27 04:55:16;;;;;;;8.47;5.30;;;10.50;1.00;;;;;;5034248;28;20187;-76
2021/10/27 04:57:50;;;;;;;7.50;4.93;;;10.50;1.00;;;;;;5033935;28;20246;-77
2021/10/27 05:00:17;;;;;;;7.10;4.77;;;10.50;1.00;;;;;;5033986;28;20431;-77
2021/10/27 05:02:58;;;;;;;7.70;5.30;;;10.50;1.00;;;;;;5032366;28;20480;-77
2021/10/27 05:05:29;;;;;;;8.93;4.90;;;10.50;1.00;;;;;;5034011;28;20850;-76
2021/10/27 05:08:04;;;;;;;8.10;5.30;;;10.50;1.00;;;;;;5033466;28;20509;-72
2021/10/27 05:10:34;;;;;;;11.33;6.47;;;10.50;1.00;;;;;;5033623;28;20452;-74
2021/10/27 05:13:04;;;;;;;6.87;5.17;;;10.50;1.00;;;;;;5033201;28;20461;-73
2021/10/27 05:15:35;;;;;;;11.43;5.87;;;10.60;1.00;;;;;;5026039;28;20809;-73
2021/10/27 05:18:00;;;;;;;11.90;5.50;;;10.60;1.00;;;;;;5043811;28;20830;-73
2021/10/27 05:20:34;;;;;;;7.10;5.50;;;10.50;1.00;;;;;;5033588;28;20443;-73
2021/10/27 05:23:00;;;;;;;7.33;5.27;;;10.50;1.00;;;;;;5033605;28;20184;-73
2021/10/27 05:25:26;;;;;;;9.87;5.10;;;;;;;;;;5033723;28;20403;-73
2021/10/27 05:27:52;;;;;;;8.60;5.10;;;10.50;1.00;;;;;;5034131;28;20199;-72
2021/10/27 05:30:18;;;;;;;6.03;4.80;;;10.50;1.00;;;;;;5037520;28;20471;-73
2021/10/27 05:32:44;;;;;;;7.77;4.93;;;10.50;1.00;;;;;;5037499;28;20289;-73
2021/10/27 05:35:16;;;;;;;17.83;5.50;;;10.50;1.00;;;;;;5037352;28;20188;-73
2021/10/27 05:37:47;;;;;;;6.50;5.27;;;10.50;1.00;;;;;;5027363;28;20427;-73
2021/10/27 05:40:20;;;;;;;10.43;6.00;;;10.50;1.00;;;;;;5020216;28;20466;-73
2021/10/27 05:42:46;;;;;;;10.30;5.97;;;10.50;1.00;;;;;;5037030;28;20429;-73
2021/10/27 05:45:12;;;;;;;7.33;5.27;;;10.50;1.00;;;;;;5034942;28;20427;-73
2021/10/27 05:47:43;;;;;;;11.53;5.40;;;10.50;1.00;;;;;;5033884;28;20470;-73
2021/10/27 05:55:30;;;;;;;10.33;5.90;;;11.00;1.00;;;;;;5036272;28;20426;-73
2021/10/27 05:57:56;;;;;;;16.27;6.37;;;11.00;1.00;;;;;;5032193;28;20421;-73
2021/10/27 06:00:22;;;;;;;10.40;6.07;;;11.00;1.00;;;;;;5035785;28;20494;-73
2021/10/27 06:02:52;;;;;;;11.33;5.40;;;11.00;1.00;;;;;;5036891;28;20218;-73
2021/10/27 06:05:19;;;;;;;9.17;5.40;;;;;;;;;;5024183;28;20399;-73
2021/10/27 06:07:47;;;;;;;11.60;4.70;;;11.00;1.00;;;;;;5030131;28;20866;-73
2021/10/27 06:10:19;;;;;;;7.37;4.93;;;;;;;;;;5031496;28;20415;-74
2021/10/27 06:12:45;;;;;;;8.77;4.80;;;;;;;;;;5035057;28;20435;-73
2021/10/27 06:15:11;;;;;;;7.30;4.90;;;;;;;;;;5036120;28;20881;-73
2021/10/27 06:17:38;;;;;;;13.73;5.50;;;10.90;1.00;;;;;;5033727;28;20434;-73
2021/10/27 06:20:05;;;;;;;9.30;5.13;;;10.90;1.00;;;;;;5034335;28;20434;-73
2021/10/27 06:22:31;;;;;;;8.17;5.00;;;;;;;;;;5042430;28;20904;-74
2021/10/27 06:24:59;;;;;;;7.80;4.70;;;;;;;;;;5035443;28;20429;-73
2021/10/27 06:27:26;;;;;;;8.87;5.20;;;;;;;;;;5035282;28;20474;-73
2021/10/27 06:29:56;;;;;;;8.40;4.83;;;;;;;;;;5040479;28;20875;-73
2021/10/27 06:32:51;;;;;;;10.80;5.13;;;;;;;;;;5040100;28;20430;-73
2021/10/27 06:35:21;;;;;;;12.63;5.40;;;10.90;1.00;;;;;;5035721;28;20423;-73
2021/10/27 06:48:28;;;;;;;6.90;5.00;;;11.10;1.00;;;;;;5035076;28;20433;-73
2021/10/27 06:51:04;;;;;;;6.40;3.67;;;11.10;1.00;;;;;;5036089;28;20477;-73
2021/10/27 06:53:31;;;;;;;9.80;5.23;;;;;;;;;;5023786;28;20427;-76
2021/10/27 06:56:11;;;;;;;6.20;4.80;;;11.20;1.00;;;;;;5034965;28;20987;-76
2021/10/27 07:01:28;;;;;;;6.93;4.70;;;11.30;1.00;;;;;;5036014;28;20426;-76
2021/10/27 07:15:09;;;;;;;9.13;5.17;;;11.50;1.00;;;;;;5036287;28;20410;-74
2021/10/27 07:17:35;;;;;;;8.10;4.93;;;11.50;1.00;;;;;;5035574;28;20407;-74
2021/10/27 07:20:05;;;;;;;7.53;4.70;;;11.60;1.00;;;;;;5035252;28;20409;-73
2021/10/27 07:22:31;;;;;;;9.60;5.20;;;11.60;1.00;;;;;;5035180;28;20782;-76
2021/10/27 07:24:59;;;;;;;8.33;5.20;;;11.70;1.00;;;;;;5034840;28;20426;-77
2021/10/27 07:27:26;;;;;;;7.60;5.17;;;11.70;1.00;;;;;;5034549;28;20232;-77
2021/10/27 07:29:52;;;;;;;8.47;4.90;;;11.70;1.00;;;;;;5034703;28;20951;-75
2021/10/27 07:32:24;;;;;;;7.70;4.83;;;11.70;1.00;;;;;;5034729;28;20494;-78
2021/10/27 07:35:02;;;;;;;9.60;5.77;;;;;;;;;;5028460;28;20177;-76
2021/10/27 07:43:14;;;;;;;11.07;6.17;;;12.10;1.00;;;;;;5019272;28;20498;-76
2021/10/27 07:45:42;;;;;;;6.40;4.30;;;12.30;1.00;;;;;;5027717;28;20898;-76
2021/10/27 07:48:18;;;;;;;7.80;5.00;;;;;;;;;;5030119;28;20792;-76
2021/10/27 07:50:44;;;;;;;8.67;5.03;;;12.30;1.00;;;;;;5021070;28;20399;-74
2021/10/27 07:53:12;;;;;;;9.20;5.10;;;12.40;1.00;;;;;;5033751;28;20450;-75
2021/10/27 07:55:44;;;;;;;7.43;5.30;;;12.50;1.00;;;;;;5034085;28;20377;-76
2021/10/27 07:58:10;;;;;;;7.10;4.80;;;12.60;1.00;;;;;;5034157;28;20393;-76
2021/10/27 08:00:37;;;;;;;7.60;4.87;;;;;;;;;;5033770;28;20397;-76
2021/10/27 08:03:03;;;;;;;8.47;5.20;;;;;;;;;;5033905;28;20758;-75
2021/10/27 08:05:34;;;;;;;6.03;4.70;;;12.80;1.00;;;;;;5033752;28;20393;-75
2021/10/27 08:08:00;;;;;;;8.63;5.00;;;;;;;;;;5032794;28;20441;-74
2021/10/27 08:10:26;;;;;;;6.63;4.57;;;12.80;1.00;;;;;;5033569;28;20936;-73
2021/10/27 08:13:00;;;;;;;6.37;4.57;;;12.80;1.00;;;;;;5090224;28;20560;-73
2021/10/27 08:15:27;;;;;;;7.00;5.17;;;12.80;1.00;;;;;;5082340;28;20420;-75
2021/10/27 08:17:53;;;;;;;6.23;4.10;;;12.80;1.00;;;;;;5082687;28;20448;-75
2021/10/27 08:20:21;;;;;;;6.63;4.67;;;12.90;1.00;;;;;;5090211;28;20459;-75
2021/10/27 08:23:01;;;;;;;10.83;4.50;;;12.90;1.00;;;;;;5089577;28;20184;-75
2021/10/27 08:28:05;;;;;;;8.80;5.20;;;12.90;1.00;;;;;;5090070;28;20424;-77
2021/10/27 08:33:35;;;;;;;7.50;4.57;;;12.80;1.00;;;;;;5084123;28;20400;-78
2021/10/27 08:36:00;;;;;;;12.80;4.90;;;12.90;1.00;;;;;;5084386;28;20511;-78
2021/10/27 08:38:26;;;;;;;17.83;6.10;;;13.00;1.00;;;;;;5087545;28;20503;-77
2021/10/27 08:40:53;;;;;;;5.53;4.33;;;13.10;1.00;;;;;;5070933;28;20186;-78
2021/10/27 08:43:18;;;;;;;8.23;4.47;;;13.30;1.00;;;;;;5077683;28;20414;-78
2021/10/27 08:45:44;;;;;;;7.50;4.67;;;13.40;1.00;;;;;;5081185;28;20765;-77
2021/10/27 08:48:12;;;;;;;7.77;4.60;;;13.40;1.00;;;;;;5086226;28;20174;-78
2021/10/27 08:50:38;;;;;;;9.17;4.63;;;13.50;1.00;;;;;;5085892;28;20633;-78
2021/10/27 08:53:05;;;;;;;7.07;4.57;;;13.50;1.00;;;;;;5089790;28;20486;-78
2021/10/27 08:55:32;;;;;;;6.10;4.33;;;13.60;1.00;;;;;;5077825;28;20499;-76
2021/10/27 08:57:58;;;;;;;11.77;5.53;;;13.70;1.00;;;;;;5069295;28;20427;-76
2021/10/27 09:00:32;;;;;;;5.70;4.00;;;13.90;1.00;;;;;;5082575;28;20467;-76
2021/10/27 09:05:43;;;;;;;9.30;4.37;;;14.10;1.00;;;;;;5086369;28;20785;-76
2021/10/27 09:17:17;;;;;;;8.50;4.33;;;14.30;1.00;;;;;;5075013;28;20417;-77
2021/10/27 09:34:46;;;;;;;5.27;3.77;;;14.60;1.00;;;;;;5047158;28;20377;-77
2021/10/27 09:40:02;;;;;;;6.67;3.90;;;14.50;1.00;;;;;;5045308;28;20455;-76
2021/10/27 09:42:52;;;;;;;8.10;4.20;;;14.40;1.00;;;;;;5058530;28;20421;-76
2021/10/27 10:04:01;;;;;;;5.40;3.47;;;14.40;1.00;;;;;;5069374;28;20476;-76
2021/10/27 10:05:22;;;;;;;4.80;2.80;;;14.60;1.00;;;;;;5053633;28;20506;-76
2021/10/27 10:07:50;;;;;;;7.87;4.30;;;14.60;1.00;;;;;;5056098;28;20389;-76
2021/10/27 10:10:17;;;;;;;7.70;4.00;;;14.80;1.00;;;;;;5056101;28;20471;-77
2021/10/27 10:12:45;;;;;;;6.10;3.93;;;14.80;1.00;;;;;;5055096;28;20465;-76
2021/10/27 10:15:12;;;;;;;6.70;4.20;;;14.80;1.00;;;;;;5058109;28;20426;-76
2021/10/27 10:17:41;;;;;;;9.40;4.63;;;14.80;1.00;;;;;;5051108;28;20434;-76
2021/10/27 10:20:15;;;;;;;20.10;3.67;;;14.70;1.00;;;;;;5067326;28;20404;-78
2021/10/27 10:22:42;;;;;;;6.37;4.00;;;14.80;1.00;;;;;;5060868;28;20524;-76
2021/10/27 10:25:14;;;;;;;5.03;3.37;;;14.80;1.00;;;;;;5056632;28;20800;-76
2021/10/27 10:27:47;;;;;;;6.70;3.77;;;14.90;1.00;;;;;;5058316;28;20434;-76
2021/10/27 10:30:39;;;;;;;8.80;4.00;;;14.90;1.00;;;;;;5048750;28;20389;-77
2021/10/27 10:33:09;;;;;;;7.60;3.80;;;14.80;1.00;;;;;;5063233;28;20508;-76
2021/10/27 10:35:43;;;;;;;8.40;4.50;;;14.80;1.00;;;;;;5065995;28;20455;-75
2021/10/27 10:38:34;;;;;;;3.37;3.13;;;14.80;1.00;;;;;;5066247;28;20388;-76
2021/10/27 11:41:19;;;;;;;2.50;1.80;;;17.30;1.00;;;;;;4973432;28;20910;-77
2021/10/27 11:44:25;;;;;;;5.07;3.47;;;17.40;1.00;;;;;;4981178;28;20422;-76
2021/10/27 11:46:58;;;;;;;3.33;2.23;;;17.30;1.00;;;;;;4990083;28;20467;-76
2021/10/27 11:49:36;;;;;;;7.37;3.10;;;17.30;1.00;;;;;;4991599;28;20509;-76
2021/10/27 11:52:06;;;;;;;2.50;2.23;;;17.10;1.00;;;;;;4976169;28;20444;-77
2021/10/27 11:54:32;;;;;;;2.80;2.23;;;16.90;1.00;;;;;;4992359;28;20417;-77
2021/10/27 11:57:01;;;;;;;3.33;2.80;;;16.90;1.00;;;;;;4992030;28;20428;-76
2021/10/27 11:59:45;;;;;;;7.60;2.80;;;16.80;1.00;;;;;;4992355;28;20872;-76
2021/10/27 12:02:11;;;;;;;3.07;2.40;;;16.70;1.00;;;;;;4992534;28;20414;-76
2021/10/27 12:04:38;;;;;;;4.83;3.07;;;16.70;1.00;;;;;;4992442;28;20434;-76
2021/10/27 12:07:38;;;;;;;2.20;2.00;;;16.80;1.00;;;;;;4991895;28;20617;-76
2021/10/27 12:16:24;;;;;;;3.03;2.07;;;17.00;1.00;;;;;;5013787;28;20415;-76
2021/10/27 12:18:33;;;;;;;5.60;2.53;;;17.10;1.00;;;;;;5019824;28;20452;-76
2021/10/27 12:20:59;;;;;;;3.83;2.60;;;;;;;;;;5004302;28;20453;-76
2021/10/27 12:23:26;;;;;;;3.67;2.50;;;17.10;1.00;;;;;;4993847;28;20598;-76
2021/10/27 12:26:05;;;;;;;4.30;3.07;;;17.20;1.00;;;;;;5003490;28;20464;-76
2021/10/27 12:28:35;;;;;;;6.07;2.50;;;17.30;1.00;;;;;;5007158;28;20432;-76
2021/10/27 12:31:19;;;;;;;7.90;2.90;;;17.30;1.00;;;;;;5005050;28;20436;-76
2021/10/27 12:33:45;;;;;;;4.67;2.60;;;17.50;1.00;;;;;;5008385;28;20894;-77
2021/10/27 12:36:18;;;;;;;3.90;2.47;;;17.60;1.00;;;;;;5005773;28;20520;-78
2021/10/27 12:39:10;;;;;;;4.20;2.47;;;17.70;1.00;;;;;;5010080;28;20432;-79
2021/10/27 12:42:10;;;;;;;4.50;2.60;;;17.70;1.00;;;;;;4996214;28;20425;-79
2021/10/27 12:44:53;;;;;;;2.80;2.60;;;17.70;1.00;;;;;;4945526;29;20415;-76
2021/10/27 12:47:25;;;;;;;12.60;3.10;;;17.70;1.00;;;;;;4933653;29;20935;-77
2021/10/27 12:50:10;;;;;;;9.77;2.50;;;17.90;1.00;;;;;;4934073;29;20437;-77
2021/10/27 12:52:58;;;;;;;2.37;2.17;;;17.90;1.00;;;;;;4972073;28;20833;-76
2021/10/27 12:55:23;;;;;;;2.10;1.90;;;17.90;1.00;;;;;;4963058;28;20424;-76
2021/10/27 12:58:18;;;;;;;2.70;2.07;;;18.00;1.00;;;;;;4972865;28;20491;-76
2021/10/27 13:06:33;;;;;;;2.27;1.77;;;18.10;1.00;;;;;;4975710;28;20420;-78
2021/10/27 13:11:48;;;;;;;4.20;1.97;;;18.10;1.00;;;;;;4964623;28;20932;-77
2021/10/27 13:14:25;;;;;;;2.70;2.10;;;18.10;1.00;;;;;;4989029;28;20509;-77
2021/10/27 13:20:11;;;;;;;6.20;1.43;;;18.00;1.00;;;;;;4971642;28;20394;-75
2021/10/27 13:33:19;;;;;;;3.33;2.00;;;17.90;1.00;;;;;;5050561;28;20527;-77
2021/10/27 13:35:45;;;;;;;6.37;1.70;;;17.80;1.00;;;;;;5060267;28;20176;-77
2021/10/27 13:38:12;;;;;;;1.63;1.53;;;17.90;1.00;;;;;;5054775;28;20424;-77
2021/10/27 13:40:44;;;;;;;2.80;1.80;;;18.00;1.00;;;;;;5075069;28;20420;-77
2021/10/27 13:48:40;;;;;;;2.87;1.70;;;18.20;1.00;;;;;;5056137;28;20414;-76
2021/10/27 14:07:34;;;;;;;2.00;1.50;;;18.20;1.00;;;;;;5052723;28;20792;-77
2021/10/27 14:10:11;;;;;;;1.43;1.33;;;18.20;1.00;;;;;;5053329;28;20950;-77
2021/10/27 14:21:58;;;;;;;2.77;1.40;;;18.30;1.00;;;;;;5050444;28;20497;-76
2021/10/27 15:15:38;;;;;;;1.57;1.47;;;18.00;1.00;;;;;;5019758;28;20428;-76
2021/10/27 15:21:40;;;;;;;1.43;0.80;;;17.80;1.00;;;;;;5015827;28;21007;-77
2021/10/27 15:24:27;;;;;;;0.70;0.70;;;17.60;1.00;;;;;;5025313;28;20426;-75
2021/10/27 15:51:19;;;;;;;5.67;1.13;;;16.50;1.00;;;;;;5021636;28;20521;-77
2021/10/27 15:53:47;;;;;;;1.60;1.10;;;16.00;1.00;;;;;;5027091;28;20486;-77
2021/10/27 15:56:13;;;;;;;2.40;1.00;;;16.00;1.00;;;;;;5031660;28;20813;-77
2021/10/27 15:58:39;;;;;;;14.07;1.27;;;15.90;1.00;;;;;;5031844;28;20480;-76
2021/10/27 16:01:05;;;;;;;6.00;1.47;;;15.70;1.00;;;;;;5021917;28;20632;-77
2021/10/27 16:03:41;;;;;;;1.57;1.30;;;15.30;1.00;;;;;;5028172;28;20271;-78
2021/10/27 16:06:12;;;;;;;1.30;1.03;;;15.30;1.00;;;;;;5031917;28;20434;-77
2021/10/27 16:08:50;;;;;;;2.33;1.20;;;15.10;1.00;;;;;;5018584;28;20817;-77
2021/10/27 16:11:17;;;;;;;1.47;1.23;;;14.90;1.00;;;;;;5018154;28;20457;-78
2021/10/27 16:13:42;;;;;;;2.50;1.27;;;14.70;1.00;;;;;;5033112;28;20425;-78
2021/10/27 16:16:17;;;;;;;2.30;1.27;;;14.40;1.00;;;;;;5067118;28;20387;-77
2021/10/27 16:18:47;;;;;;;1.73;1.20;;;14.30;1.00;;;;;;5051941;28;20214;-78
2021/10/27 16:21:12;;;;;;;2.13;1.17;;;13.90;1.00;;;;;;5067029;28;20417;-78
2021/10/27 16:24:16;;;;;;;1.00;1.00;;;14.10;1.00;;;;;;5042019;28;20430;-78
2021/10/27 16:26:42;;;;;;;3.03;1.40;;;13.80;1.00;;;;;;5040672;28;20197;-78
2021/10/27 16:29:17;;;;;;;1.83;1.20;;;13.50;1.00;;;;;;5063286;28;20508;-76
2021/10/27 16:31:48;;;;;;;2.00;1.43;;;13.40;1.00;;;;;;5073578;28;20289;-78
2021/10/27 16:34:18;;;;;;;1.00;0.87;;;13.10;1.00;;;;;;5056380;28;20432;-78
2021/10/27 16:36:47;;;;;;;2.80;1.30;;;13.10;1.00;;;;;;5046257;28;20410;-77
2021/10/27 16:39:14;;;;;;;4.67;1.53;;;13.10;1.00;;;;;;5070040;28;20741;-77
2021/10/27 16:41:42;;;;;;;2.10;1.60;;;12.70;1.00;;;;;;5065220;28;20429;-77
2021/10/27 16:44:12;;;;;;;2.03;1.13;;;12.70;1.00;;;;;;5047315;28;20425;-79
2021/10/27 16:46:47;;;;;;;2.13;1.40;;;12.90;1.00;;;;;;5068780;28;20452;-80
2021/10/27 16:49:13;;;;;;;2.13;1.10;;;12.60;1.00;;;;;;5063501;28;20420;-79
2021/10/27 16:51:53;;;;;;;3.80;1.20;;;13.30;1.00;;;;;;5054438;28;20468;-79
2021/10/27 16:54:29;;;;;;;2.40;1.00;;;12.20;1.00;;;;;;5053677;28;20496;-78
2021/10/27 16:57:17;;;;;;;2.23;1.50;;;12.20;1.00;;;;;;5058677;28;20431;-77
2021/10/27 16:59:53;;;;;;;1.27;1.17;;;12.10;1.00;;;;;;5077395;28;20420;-78
2021/10/27 17:02:19;;;;;;;1.67;1.57;;;12.00;1.00;;;;;;5069148;28;20444;-78
2021/10/27 17:04:44;;;;;;;2.10;1.70;;;11.90;1.00;;;;;;5056866;28;20413;-78
2021/10/27 17:07:10;;;;;;;7.00;1.67;;;11.80;1.00;;;;;;5055336;28;20400;-77
2021/10/27 17:09:41;;;;;;;1.60;1.50;;;11.80;1.00;;;;;;5070339;28;20582;-77
2021/10/27 17:12:08;;;;;;;1.57;1.47;;;11.70;1.00;;;;;;5064811;28;20480;-77
2021/10/27 17:14:42;;;;;;;5.97;1.97;;;11.60;1.00;;;;;;5070668;28;20520;-77
2021/10/27 17:17:17;;;;;;;4.00;1.80;;;11.60;1.00;;;;;;5053417;28;20817;-76
2021/10/27 17:19:42;;;;;;;3.47;2.43;;;11.50;1.00;;;;;;5055344;28;20797;-77
2021/10/27 17:22:11;;;;;;;9.33;2.03;;;11.50;1.00;;;;;;5065453;28;20437;-77
2021/10/27 17:24:41;;;;;;;2.70;2.13;;;11.30;1.00;;;;;;5053159;28;20180;-76
2021/10/27 17:27:07;;;;;;;2.23;2.03;;;11.40;1.00;;;;;;5054384;28;20503;-77
2021/10/27 17:29:32;;;;;;;5.00;3.00;;;11.90;1.00;;;;;;5056994;28;20418;-78
2021/10/27 17:31:59;;;;;;;6.00;2.10;;;11.10;1.00;;;;;;5067765;28;20194;-77
2021/10/27 17:34:35;;;;;;;5.20;2.13;;;11.10;1.00;;;;;;5056772;28;20426;-77
2021/10/27 17:37:01;;;;;;;3.50;2.40;;;11.10;1.00;;;;;;5046791;28;21094;-76
2021/10/27 17:39:30;;;;;;;3.07;2.70;;;11.10;1.00;;;;;;5050791;28;20964;-77
2021/10/27 17:41:57;;;;;;;4.90;2.30;;;11.00;1.00;;;;;;5055811;28;20410;-77
2021/10/27 17:44:25;;;;;;;4.17;2.20;;;10.90;1.00;;;;;;5047199;28;20473;-77
2021/10/27 17:46:56;;;;;;;2.37;2.20;;;11.40;1.00;;;;;;5048095;28;20419;-77
2021/10/27 18:00:06;;;;;;;2.20;1.70;;;10.60;1.00;;;;;;5057946;28;20422;-78
2021/10/27 18:02:47;;;;;;;4.90;2.03;;;10.60;1.00;;;;;;5067705;28;20422;-78
2021/10/27 18:05:13;;;;;;;2.17;1.80;;;10.50;1.00;;;;;;5058660;28;20440;-78
2021/10/27 18:07:42;;;;;;;2.70;1.63;;;10.60;1.00;;;;;;5059070;28;20426;-77
2021/10/27 18:10:18;;;;;;;1.93;1.83;;;10.50;1.00;;;;;;5060093;28;20493;-78
2021/10/27 18:13:00;;;;;;;4.63;2.23;;;10.50;1.00;;;;;;5063551;28;20484;-78
2021/10/27 18:15:32;;;;;;;2.43;2.00;;;10.40;1.00;;;;;;5052396;28;20421;-76
2021/10/27 18:17:58;;;;;;;2.00;1.90;;;10.40;1.00;;;;;;5056254;28;20432;-76
2021/10/27 18:20:26;;;;;;;8.30;1.80;;;10.30;1.00;;;;;;5055583;28;20403;-77
2021/10/27 18:23:23;;;;;;;3.53;2.20;;;10.40;1.00;;;;;;5069181;28;20186;-78
2021/10/27 18:40:29;;;;;;;2.17;1.97;;;10.10;1.00;;;;;;5011772;28;20880;-76